sensor_id;sensor_type;location;lat;lon;timestamp;P1;durP1;ratioP1;P2;durP2;ratioP2
17993;SDS011;9122;48.406;9.984;2023-05-19T00:02:28;3.43;;;3.10;;
17993;SDS011;9122;48.406;9.984;2023-05-19T00:05:16;3.07;;;2.87;;
17993;SDS011;9122;48.406;9.984;2023-05-19T00:08:00;3.30;;;2.80;;
17993;SDS011;9122;48.406;9.984;2023-05-19T00:10:46;5.43;;;3.30;;
17993;SDS011;9122;48.406;9.984;2023-05-19T00:13:31;3.00;;;2.80;;
17993;SDS011;9122;48.406;9.984;2023-05-19T00:16:16;3.70;;;2.80;;
17993;SDS011;9122;48.406;9.984;2023-05-19T00:19:01;3.20;;;2.83;;
17993;SDS011;9122;48.406;9.984;2023-05-19T00:21:48;3.03;;;2.77;;
17993;SDS011;9122;48.406;9.984;2023-05-19T00:24:33;2.97;;;2.77;;
17993;SDS011;9122;48.406;9.984;2023-05-19T00:27:17;3.23;;;2.90;;
17993;SDS011;9122;48.406;9.984;2023-05-19T00:30:01;3.67;;;3.37;;
17993;SDS011;9122;48.406;9.984;2023-05-19T00:32:46;3.87;;;3.50;;
17993;SDS011;9122;48.406;9.984;2023-05-19T00:35:29;3.33;;;3.03;;
17993;SDS011;9122;48.406;9.984;2023-05-19T00:38:14;4.20;;;3.40;;
17993;SDS011;9122;48.406;9.984;2023-05-19T00:40:59;3.80;;;3.50;;
17993;SDS011;9122;48.406;9.984;2023-05-19T00:43:44;4.37;;;3.53;;
17993;SDS011;9122;48.406;9.984;2023-05-19T00:46:29;7.20;;;3.87;;
17993;SDS011;9122;48.406;9.984;2023-05-19T00:49:13;4.67;;;4.20;;
17993;SDS011;9122;48.406;9.984;2023-05-19T00:51:59;4.33;;;3.33;;
17993;SDS011;9122;48.406;9.984;2023-05-19T00:54:47;4.40;;;4.00;;
17993;SDS011;9122;48.406;9.984;2023-05-19T00:57:33;3.87;;;3.47;;
17993;SDS011;9122;48.406;9.984;2023-05-19T01:00:18;4.53;;;3.87;;
17993;SDS011;9122;48.406;9.984;2023-05-19T01:03:03;3.50;;;3.27;;
17993;SDS011;9122;48.406;9.984;2023-05-19T01:05:53;4.17;;;3.50;;
17993;SDS011;9122;48.406;9.984;2023-05-19T01:08:38;4.67;;;3.60;;
17993;SDS011;9122;48.406;9.984;2023-05-19T01:11:22;3.47;;;3.27;;
17993;SDS011;9122;48.406;9.984;2023-05-19T01:14:07;4.97;;;3.60;;
17993;SDS011;9122;48.406;9.984;2023-05-19T01:20:17;4.83;;;3.90;;
17993;SDS011;9122;48.406;9.984;2023-05-19T01:27:03;4.47;;;4.07;;
17993;SDS011;9122;48.406;9.984;2023-05-19T01:32:39;6.23;;;3.60;;
17993;SDS011;9122;48.406;9.984;2023-05-19T01:35:25;3.90;;;3.57;;
17993;SDS011;9122;48.406;9.984;2023-05-19T01:38:11;5.20;;;3.63;;
17993;SDS011;9122;48.406;9.984;2023-05-19T01:40:57;6.33;;;3.73;;
17993;SDS011;9122;48.406;9.984;2023-05-19T01:43:43;8.23;;;4.27;;
17993;SDS011;9122;48.406;9.984;2023-05-19T01:46:28;4.40;;;3.53;;
17993;SDS011;9122;48.406;9.984;2023-05-19T01:49:12;8.70;;;5.10;;
17993;SDS011;9122;48.406;9.984;2023-05-19T01:51:57;4.50;;;4.10;;
17993;SDS011;9122;48.406;9.984;2023-05-19T01:54:42;4.03;;;3.30;;
17993;SDS011;9122;48.406;9.984;2023-05-19T01:57:30;4.67;;;4.17;;
17993;SDS011;9122;48.406;9.984;2023-05-19T02:03:31;8.47;;;3.90;;
17993;SDS011;9122;48.406;9.984;2023-05-19T02:09:40;3.97;;;3.67;;
17993;SDS011;9122;48.406;9.984;2023-05-19T02:12:35;4.20;;;3.80;;
17993;SDS011;9122;48.406;9.984;2023-05-19T02:15:21;5.87;;;3.13;;
17993;SDS011;9122;48.406;9.984;2023-05-19T02:18:10;4.47;;;3.43;;
17993;SDS011;9122;48.406;9.984;2023-05-19T02:20:54;3.90;;;3.17;;
17993;SDS011;9122;48.406;9.984;2023-05-19T02:23:40;5.47;;;4.70;;
17993;SDS011;9122;48.406;9.984;2023-05-19T02:26:24;5.07;;;3.83;;
17993;SDS011;9122;48.406;9.984;2023-05-19T02:29:09;4.03;;;3.40;;
17993;SDS011;9122;48.406;9.984;2023-05-19T02:31:54;4.50;;;3.93;;
17993;SDS011;9122;48.406;9.984;2023-05-19T02:34:38;3.90;;;3.50;;
17993;SDS011;9122;48.406;9.984;2023-05-19T02:37:22;5.10;;;3.50;;
17993;SDS011;9122;48.406;9.984;2023-05-19T02:40:08;5.13;;;3.73;;
17993;SDS011;9122;48.406;9.984;2023-05-19T02:42:52;4.80;;;4.10;;
17993;SDS011;9122;48.406;9.984;2023-05-19T02:45:37;4.83;;;4.10;;
17993;SDS011;9122;48.406;9.984;2023-05-19T02:48:21;4.90;;;4.20;;
17993;SDS011;9122;48.406;9.984;2023-05-19T02:51:05;6.30;;;4.57;;
17993;SDS011;9122;48.406;9.984;2023-05-19T02:53:49;4.23;;;3.83;;
17993;SDS011;9122;48.406;9.984;2023-05-19T02:56:34;7.73;;;3.80;;
17993;SDS011;9122;48.406;9.984;2023-05-19T02:59:18;4.70;;;4.30;;
17993;SDS011;9122;48.406;9.984;2023-05-19T03:02:02;8.43;;;4.50;;
17993;SDS011;9122;48.406;9.984;2023-05-19T03:04:47;5.00;;;3.73;;
17993;SDS011;9122;48.406;9.984;2023-05-19T03:07:31;4.60;;;3.90;;
17993;SDS011;9122;48.406;9.984;2023-05-19T03:10:16;5.97;;;3.67;;
17993;SDS011;9122;48.406;9.984;2023-05-19T03:13:01;5.07;;;4.20;;
17993;SDS011;9122;48.406;9.984;2023-05-19T03:15:45;4.67;;;4.20;;
17993;SDS011;9122;48.406;9.984;2023-05-19T03:18:30;5.43;;;4.10;;
17993;SDS011;9122;48.406;9.984;2023-05-19T03:21:14;4.80;;;4.30;;
17993;SDS011;9122;48.406;9.984;2023-05-19T03:23:59;4.60;;;3.80;;
17993;SDS011;9122;48.406;9.984;2023-05-19T03:26:43;4.73;;;4.00;;
17993;SDS011;9122;48.406;9.984;2023-05-19T03:29:28;5.67;;;3.97;;
17993;SDS011;9122;48.406;9.984;2023-05-19T03:32:13;6.97;;;4.30;;
17993;SDS011;9122;48.406;9.984;2023-05-19T03:34:57;6.13;;;4.03;;
17993;SDS011;9122;48.406;9.984;2023-05-19T03:37:42;5.47;;;3.97;;
17993;SDS011;9122;48.406;9.984;2023-05-19T03:40:26;6.17;;;4.10;;
17993;SDS011;9122;48.406;9.984;2023-05-19T03:43:10;4.73;;;4.13;;
17993;SDS011;9122;48.406;9.984;2023-05-19T03:45:55;7.17;;;4.40;;
17993;SDS011;9122;48.406;9.984;2023-05-19T03:48:40;4.73;;;3.87;;
17993;SDS011;9122;48.406;9.984;2023-05-19T03:51:24;6.30;;;4.07;;
17993;SDS011;9122;48.406;9.984;2023-05-19T03:54:10;6.30;;;4.07;;
17993;SDS011;9122;48.406;9.984;2023-05-19T03:56:54;6.57;;;3.60;;
17993;SDS011;9122;48.406;9.984;2023-05-19T03:59:39;4.73;;;4.27;;
17993;SDS011;9122;48.406;9.984;2023-05-19T04:02:24;4.57;;;3.93;;
17993;SDS011;9122;48.406;9.984;2023-05-19T04:05:08;6.37;;;4.30;;
17993;SDS011;9122;48.406;9.984;2023-05-19T04:07:53;5.90;;;4.53;;
17993;SDS011;9122;48.406;9.984;2023-05-19T04:10:37;4.53;;;3.93;;
17993;SDS011;9122;48.406;9.984;2023-05-19T04:13:22;4.33;;;3.93;;
17993;SDS011;9122;48.406;9.984;2023-05-19T04:16:06;6.50;;;4.20;;
17993;SDS011;9122;48.406;9.984;2023-05-19T04:18:52;6.40;;;4.40;;
17993;SDS011;9122;48.406;9.984;2023-05-19T04:21:36;5.27;;;3.63;;
17993;SDS011;9122;48.406;9.984;2023-05-19T04:24:20;6.67;;;4.20;;
17993;SDS011;9122;48.406;9.984;2023-05-19T04:27:05;4.83;;;4.43;;
17993;SDS011;9122;48.406;9.984;2023-05-19T04:29:54;4.63;;;4.03;;
17993;SDS011;9122;48.406;9.984;2023-05-19T04:32:38;6.77;;;4.23;;
17993;SDS011;9122;48.406;9.984;2023-05-19T04:35:26;6.60;;;4.00;;
17993;SDS011;9122;48.406;9.984;2023-05-19T04:38:10;6.10;;;3.67;;
17993;SDS011;9122;48.406;9.984;2023-05-19T04:40:54;6.53;;;3.33;;
17993;SDS011;9122;48.406;9.984;2023-05-19T04:43:39;6.60;;;4.37;;
17993;SDS011;9122;48.406;9.984;2023-05-19T04:46:24;5.20;;;3.80;;
17993;SDS011;9122;48.406;9.984;2023-05-19T04:49:09;4.40;;;4.00;;
17993;SDS011;9122;48.406;9.984;2023-05-19T04:51:57;4.40;;;4.00;;
17993;SDS011;9122;48.406;9.984;2023-05-19T04:54:42;4.63;;;3.90;;
17993;SDS011;9122;48.406;9.984;2023-05-19T04:57:26;4.00;;;3.63;;
17993;SDS011;9122;48.406;9.984;2023-05-19T05:00:10;5.17;;;4.00;;
17993;SDS011;9122;48.406;9.984;2023-05-19T05:02:57;5.80;;;4.10;;
17993;SDS011;9122;48.406;9.984;2023-05-19T05:05:42;6.17;;;4.27;;
17993;SDS011;9122;48.406;9.984;2023-05-19T05:08:26;4.10;;;3.70;;
17993;SDS011;9122;48.406;9.984;2023-05-19T05:11:12;4.43;;;4.03;;
17993;SDS011;9122;48.406;9.984;2023-05-19T05:13:57;4.13;;;3.53;;
17993;SDS011;9122;48.406;9.984;2023-05-19T05:16:41;6.87;;;4.40;;
17993;SDS011;9122;48.406;9.984;2023-05-19T05:19:26;5.00;;;4.13;;
17993;SDS011;9122;48.406;9.984;2023-05-19T05:22:11;6.43;;;3.40;;
17993;SDS011;9122;48.406;9.984;2023-05-19T05:24:56;6.63;;;3.50;;
17993;SDS011;9122;48.406;9.984;2023-05-19T05:27:40;5.50;;;3.67;;
17993;SDS011;9122;48.406;9.984;2023-05-19T05:30:25;5.73;;;4.03;;
17993;SDS011;9122;48.406;9.984;2023-05-19T05:33:09;4.67;;;4.27;;
17993;SDS011;9122;48.406;9.984;2023-05-19T05:35:54;5.33;;;4.57;;
17993;SDS011;9122;48.406;9.984;2023-05-19T05:38:38;8.07;;;4.90;;
17993;SDS011;9122;48.406;9.984;2023-05-19T05:41:22;5.47;;;4.20;;
17993;SDS011;9122;48.406;9.984;2023-05-19T05:44:07;5.53;;;4.87;;
17993;SDS011;9122;48.406;9.984;2023-05-19T05:46:52;5.10;;;4.13;;
17993;SDS011;9122;48.406;9.984;2023-05-19T05:49:36;5.73;;;4.63;;
17993;SDS011;9122;48.406;9.984;2023-05-19T05:52:22;4.43;;;4.07;;
17993;SDS011;9122;48.406;9.984;2023-05-19T05:55:12;5.03;;;4.50;;
17993;SDS011;9122;48.406;9.984;2023-05-19T05:57:57;4.97;;;4.33;;
17993;SDS011;9122;48.406;9.984;2023-05-19T06:00:44;7.13;;;4.47;;
17993;SDS011;9122;48.406;9.984;2023-05-19T06:03:30;6.17;;;4.47;;
17993;SDS011;9122;48.406;9.984;2023-05-19T06:06:16;7.00;;;4.17;;
17993;SDS011;9122;48.406;9.984;2023-05-19T06:09:00;6.77;;;4.77;;
17993;SDS011;9122;48.406;9.984;2023-05-19T06:11:45;7.60;;;4.70;;
17993;SDS011;9122;48.406;9.984;2023-05-19T06:14:30;5.33;;;4.83;;
17993;SDS011;9122;48.406;9.984;2023-05-19T06:17:14;6.90;;;5.40;;
17993;SDS011;9122;48.406;9.984;2023-05-19T06:19:59;6.90;;;4.97;;
17993;SDS011;9122;48.406;9.984;2023-05-19T06:22:43;7.93;;;4.30;;
17993;SDS011;9122;48.406;9.984;2023-05-19T06:25:28;5.77;;;5.10;;
17993;SDS011;9122;48.406;9.984;2023-05-19T06:28:13;7.13;;;5.23;;
17993;SDS011;9122;48.406;9.984;2023-05-19T06:30:57;5.73;;;5.03;;
17993;SDS011;9122;48.406;9.984;2023-05-19T06:33:42;5.87;;;5.07;;
17993;SDS011;9122;48.406;9.984;2023-05-19T06:36:27;7.60;;;5.30;;
17993;SDS011;9122;48.406;9.984;2023-05-19T06:39:11;8.57;;;5.40;;
17993;SDS011;9122;48.406;9.984;2023-05-19T06:41:56;5.50;;;4.77;;
17993;SDS011;9122;48.406;9.984;2023-05-19T06:44:40;6.03;;;5.27;;
17993;SDS011;9122;48.406;9.984;2023-05-19T06:47:25;6.63;;;5.20;;
17993;SDS011;9122;48.406;9.984;2023-05-19T06:50:10;6.40;;;5.00;;
17993;SDS011;9122;48.406;9.984;2023-05-19T06:52:54;5.10;;;4.63;;
17993;SDS011;9122;48.406;9.984;2023-05-19T06:55:39;7.07;;;5.00;;
17993;SDS011;9122;48.406;9.984;2023-05-19T06:58:24;5.50;;;5.00;;
17993;SDS011;9122;48.406;9.984;2023-05-19T07:01:09;5.20;;;4.70;;
17993;SDS011;9122;48.406;9.984;2023-05-19T07:03:54;5.50;;;5.00;;
17993;SDS011;9122;48.406;9.984;2023-05-19T07:06:38;6.30;;;5.53;;
17993;SDS011;9122;48.406;9.984;2023-05-19T07:09:23;5.73;;;4.80;;
17993;SDS011;9122;48.406;9.984;2023-05-19T07:12:07;5.53;;;4.80;;
17993;SDS011;9122;48.406;9.984;2023-05-19T07:14:52;5.97;;;5.33;;
17993;SDS011;9122;48.406;9.984;2023-05-19T07:17:36;6.63;;;5.07;;
17993;SDS011;9122;48.406;9.984;2023-05-19T07:20:20;10.67;;;5.80;;
17993;SDS011;9122;48.406;9.984;2023-05-19T07:23:05;6.00;;;5.40;;
17993;SDS011;9122;48.406;9.984;2023-05-19T07:25:52;6.03;;;5.47;;
17993;SDS011;9122;48.406;9.984;2023-05-19T07:28:38;5.03;;;4.57;;
17993;SDS011;9122;48.406;9.984;2023-05-19T07:31:23;6.20;;;5.50;;
17993;SDS011;9122;48.406;9.984;2023-05-19T07:34:07;6.23;;;5.17;;
17993;SDS011;9122;48.406;9.984;2023-05-19T07:36:52;7.67;;;5.10;;
17993;SDS011;9122;48.406;9.984;2023-05-19T07:39:37;5.93;;;5.43;;
17993;SDS011;9122;48.406;9.984;2023-05-19T07:42:21;6.70;;;5.70;;
17993;SDS011;9122;48.406;9.984;2023-05-19T07:45:06;5.80;;;5.30;;
17993;SDS011;9122;48.406;9.984;2023-05-19T07:47:52;6.77;;;5.33;;
17993;SDS011;9122;48.406;9.984;2023-05-19T07:50:37;6.47;;;5.90;;
17993;SDS011;9122;48.406;9.984;2023-05-19T07:53:21;6.30;;;5.67;;
17993;SDS011;9122;48.406;9.984;2023-05-19T07:56:06;7.20;;;5.40;;
17993;SDS011;9122;48.406;9.984;2023-05-19T07:58:50;6.63;;;6.03;;
17993;SDS011;9122;48.406;9.984;2023-05-19T08:01:35;6.30;;;5.70;;
17993;SDS011;9122;48.406;9.984;2023-05-19T08:04:19;6.20;;;5.27;;
17993;SDS011;9122;48.406;9.984;2023-05-19T08:07:04;7.67;;;5.40;;
17993;SDS011;9122;48.406;9.984;2023-05-19T08:09:48;6.60;;;6.10;;
17993;SDS011;9122;48.406;9.984;2023-05-19T08:12:33;6.07;;;5.33;;
17993;SDS011;9122;48.406;9.984;2023-05-19T08:15:18;5.63;;;5.13;;
17993;SDS011;9122;48.406;9.984;2023-05-19T08:18:02;8.30;;;5.67;;
17993;SDS011;9122;48.406;9.984;2023-05-19T08:20:48;5.77;;;5.20;;
17993;SDS011;9122;48.406;9.984;2023-05-19T08:23:32;8.57;;;5.90;;
17993;SDS011;9122;48.406;9.984;2023-05-19T08:26:17;5.53;;;4.70;;
17993;SDS011;9122;48.406;9.984;2023-05-19T08:29:02;6.03;;;5.10;;
17993;SDS011;9122;48.406;9.984;2023-05-19T08:31:46;6.90;;;5.77;;
17993;SDS011;9122;48.406;9.984;2023-05-19T08:34:31;8.57;;;6.77;;
17993;SDS011;9122;48.406;9.984;2023-05-19T08:37:15;7.47;;;6.33;;
17993;SDS011;9122;48.406;9.984;2023-05-19T08:40:00;6.63;;;5.83;;
17993;SDS011;9122;48.406;9.984;2023-05-19T08:42:47;7.60;;;6.00;;
17993;SDS011;9122;48.406;9.984;2023-05-19T08:45:31;6.57;;;5.63;;
17993;SDS011;9122;48.406;9.984;2023-05-19T08:48:17;6.63;;;5.73;;
17993;SDS011;9122;48.406;9.984;2023-05-19T08:54:15;6.93;;;6.07;;
17993;SDS011;9122;48.406;9.984;2023-05-19T08:57:01;5.67;;;5.07;;
17993;SDS011;9122;48.406;9.984;2023-05-19T08:59:45;7.23;;;5.30;;
17993;SDS011;9122;48.406;9.984;2023-05-19T09:02:31;5.40;;;4.90;;
17993;SDS011;9122;48.406;9.984;2023-05-19T09:05:16;6.67;;;5.93;;
17993;SDS011;9122;48.406;9.984;2023-05-19T09:08:01;6.83;;;5.20;;
17993;SDS011;9122;48.406;9.984;2023-05-19T09:10:47;5.93;;;5.13;;
17993;SDS011;9122;48.406;9.984;2023-05-19T09:13:31;6.47;;;5.33;;
17993;SDS011;9122;48.406;9.984;2023-05-19T09:16:16;5.13;;;4.67;;
17993;SDS011;9122;48.406;9.984;2023-05-19T09:19:01;7.30;;;5.17;;
17993;SDS011;9122;48.406;9.984;2023-05-19T09:21:45;4.63;;;4.33;;
17993;SDS011;9122;48.406;9.984;2023-05-19T09:24:40;6.50;;;4.40;;
17993;SDS011;9122;48.406;9.984;2023-05-19T09:27:25;5.60;;;4.70;;
17993;SDS011;9122;48.406;9.984;2023-05-19T09:30:10;6.57;;;4.87;;
17993;SDS011;9122;48.406;9.984;2023-05-19T09:32:55;4.67;;;4.27;;
17993;SDS011;9122;48.406;9.984;2023-05-19T09:35:39;5.20;;;4.80;;
17993;SDS011;9122;48.406;9.984;2023-05-19T09:38:29;5.37;;;4.83;;
17993;SDS011;9122;48.406;9.984;2023-05-19T09:41:13;8.00;;;5.37;;
17993;SDS011;9122;48.406;9.984;2023-05-19T09:43:58;7.00;;;4.90;;
17993;SDS011;9122;48.406;9.984;2023-05-19T09:46:46;5.53;;;5.07;;
17993;SDS011;9122;48.406;9.984;2023-05-19T09:49:31;6.33;;;5.10;;
17993;SDS011;9122;48.406;9.984;2023-05-19T09:52:15;5.57;;;5.07;;
17993;SDS011;9122;48.406;9.984;2023-05-19T09:55:01;6.33;;;5.10;;
17993;SDS011;9122;48.406;9.984;2023-05-19T09:57:47;5.13;;;4.43;;
17993;SDS011;9122;48.406;9.984;2023-05-19T10:00:32;6.00;;;4.80;;
17993;SDS011;9122;48.406;9.984;2023-05-19T10:03:17;7.63;;;5.70;;
17993;SDS011;9122;48.406;9.984;2023-05-19T10:06:05;5.70;;;4.93;;
17993;SDS011;9122;48.406;9.984;2023-05-19T10:08:51;5.17;;;4.67;;
17993;SDS011;9122;48.406;9.984;2023-05-19T10:11:37;7.20;;;5.20;;
17993;SDS011;9122;48.406;9.984;2023-05-19T10:14:22;5.83;;;5.33;;
17993;SDS011;9122;48.406;9.984;2023-05-19T10:17:09;5.60;;;5.10;;
17993;SDS011;9122;48.406;9.984;2023-05-19T10:19:54;5.37;;;4.87;;
17993;SDS011;9122;48.406;9.984;2023-05-19T10:22:40;4.97;;;4.47;;
17993;SDS011;9122;48.406;9.984;2023-05-19T10:25:26;5.03;;;4.57;;
17993;SDS011;9122;48.406;9.984;2023-05-19T10:28:12;5.47;;;4.30;;
17993;SDS011;9122;48.406;9.984;2023-05-19T10:30:59;4.07;;;3.70;;
17993;SDS011;9122;48.406;9.984;2023-05-19T10:34:04;6.37;;;4.10;;
17993;SDS011;9122;48.406;9.984;2023-05-19T10:37:47;4.87;;;4.17;;
17993;SDS011;9122;48.406;9.984;2023-05-19T10:41:56;4.10;;;3.70;;
17993;SDS011;9122;48.406;9.984;2023-05-19T10:47:05;5.27;;;4.50;;
17993;SDS011;9122;48.406;9.984;2023-05-19T10:49:54;4.70;;;4.27;;
17993;SDS011;9122;48.406;9.984;2023-05-19T10:52:38;4.70;;;4.23;;
17993;SDS011;9122;48.406;9.984;2023-05-19T10:58:38;4.40;;;4.10;;
17993;SDS011;9122;48.406;9.984;2023-05-19T11:01:30;5.20;;;4.80;;
17993;SDS011;9122;48.406;9.984;2023-05-19T11:04:15;5.23;;;4.63;;
17993;SDS011;9122;48.406;9.984;2023-05-19T11:07:00;4.40;;;4.00;;
17993;SDS011;9122;48.406;9.984;2023-05-19T11:09:50;5.30;;;4.90;;
17993;SDS011;9122;48.406;9.984;2023-05-19T11:12:44;6.33;;;4.70;;
17993;SDS011;9122;48.406;9.984;2023-05-19T11:15:28;5.37;;;4.87;;
17993;SDS011;9122;48.406;9.984;2023-05-19T11:18:18;7.57;;;5.43;;
17993;SDS011;9122;48.406;9.984;2023-05-19T11:21:04;6.00;;;5.03;;
17993;SDS011;9122;48.406;9.984;2023-05-19T11:23:49;7.90;;;5.60;;
17993;SDS011;9122;48.406;9.984;2023-05-19T11:26:38;5.40;;;5.00;;
17993;SDS011;9122;48.406;9.984;2023-05-19T11:29:24;5.80;;;5.40;;
17993;SDS011;9122;48.406;9.984;2023-05-19T11:32:10;6.57;;;5.97;;
17993;SDS011;9122;48.406;9.984;2023-05-19T11:34:56;6.07;;;5.47;;
17993;SDS011;9122;48.406;9.984;2023-05-19T11:37:41;6.00;;;5.40;;
17993;SDS011;9122;48.406;9.984;2023-05-19T11:40:25;6.23;;;5.60;;
17993;SDS011;9122;48.406;9.984;2023-05-19T11:43:10;6.80;;;6.20;;
17993;SDS011;9122;48.406;9.984;2023-05-19T11:45:54;7.07;;;5.87;;
17993;SDS011;9122;48.406;9.984;2023-05-19T11:48:39;9.77;;;6.00;;
17993;SDS011;9122;48.406;9.984;2023-05-19T11:51:23;7.20;;;6.10;;
17993;SDS011;9122;48.406;9.984;2023-05-19T11:54:08;7.27;;;6.53;;
17993;SDS011;9122;48.406;9.984;2023-05-19T11:56:53;8.70;;;6.50;;
17993;SDS011;9122;48.406;9.984;2023-05-19T11:59:38;6.73;;;6.03;;
17993;SDS011;9122;48.406;9.984;2023-05-19T12:02:28;6.90;;;6.20;;
17993;SDS011;9122;48.406;9.984;2023-05-19T12:05:17;9.20;;;6.20;;
17993;SDS011;9122;48.406;9.984;2023-05-19T12:08:09;7.07;;;6.47;;
17993;SDS011;9122;48.406;9.984;2023-05-19T12:10:54;6.57;;;6.07;;
17993;SDS011;9122;48.406;9.984;2023-05-19T12:13:39;6.50;;;5.77;;
17993;SDS011;9122;48.406;9.984;2023-05-19T12:16:31;8.77;;;6.00;;
17993;SDS011;9122;48.406;9.984;2023-05-19T12:19:18;8.23;;;5.97;;
17993;SDS011;9122;48.406;9.984;2023-05-19T12:22:06;5.97;;;5.47;;
17993;SDS011;9122;48.406;9.984;2023-05-19T12:24:51;7.77;;;6.97;;
17993;SDS011;9122;48.406;9.984;2023-05-19T12:27:35;6.57;;;6.00;;
17993;SDS011;9122;48.406;9.984;2023-05-19T12:30:23;6.80;;;6.10;;
17993;SDS011;9122;48.406;9.984;2023-05-19T12:33:10;6.83;;;6.23;;
17993;SDS011;9122;48.406;9.984;2023-05-19T12:35:55;7.53;;;6.17;;
17993;SDS011;9122;48.406;9.984;2023-05-19T12:38:39;7.40;;;6.13;;
17993;SDS011;9122;48.406;9.984;2023-05-19T12:41:24;7.53;;;6.23;;
17993;SDS011;9122;48.406;9.984;2023-05-19T12:44:13;7.17;;;6.67;;
17993;SDS011;9122;48.406;9.984;2023-05-19T12:46:58;7.03;;;6.30;;
17993;SDS011;9122;48.406;9.984;2023-05-19T12:49:53;6.73;;;6.13;;
17993;SDS011;9122;48.406;9.984;2023-05-19T12:52:44;6.97;;;6.27;;
17993;SDS011;9122;48.406;9.984;2023-05-19T12:55:29;7.30;;;6.60;;
17993;SDS011;9122;48.406;9.984;2023-05-19T12:58:14;6.77;;;5.53;;
17993;SDS011;9122;48.406;9.984;2023-05-19T13:00:58;6.17;;;5.60;;
17993;SDS011;9122;48.406;9.984;2023-05-19T13:03:43;7.43;;;5.90;;
17993;SDS011;9122;48.406;9.984;2023-05-19T13:06:28;7.53;;;6.60;;
17993;SDS011;9122;48.406;9.984;2023-05-19T13:09:13;6.70;;;6.10;;
17993;SDS011;9122;48.406;9.984;2023-05-19T13:11:58;7.67;;;6.20;;
17993;SDS011;9122;48.406;9.984;2023-05-19T13:14:43;7.27;;;5.87;;
17993;SDS011;9122;48.406;9.984;2023-05-19T13:17:27;8.23;;;6.97;;
17993;SDS011;9122;48.406;9.984;2023-05-19T13:20:11;6.97;;;6.27;;
17993;SDS011;9122;48.406;9.984;2023-05-19T13:22:56;5.80;;;5.40;;
17993;SDS011;9122;48.406;9.984;2023-05-19T13:25:41;8.17;;;6.70;;
17993;SDS011;9122;48.406;9.984;2023-05-19T13:28:26;6.50;;;5.87;;
17993;SDS011;9122;48.406;9.984;2023-05-19T13:31:10;6.13;;;5.57;;
17993;SDS011;9122;48.406;9.984;2023-05-19T13:33:55;6.70;;;6.10;;
17993;SDS011;9122;48.406;9.984;2023-05-19T13:36:39;7.23;;;5.93;;
17993;SDS011;9122;48.406;9.984;2023-05-19T13:39:25;6.60;;;6.00;;
17993;SDS011;9122;48.406;9.984;2023-05-19T13:42:09;8.13;;;6.10;;
17993;SDS011;9122;48.406;9.984;2023-05-19T13:44:54;6.47;;;5.87;;
17993;SDS011;9122;48.406;9.984;2023-05-19T13:47:39;6.87;;;6.23;;
17993;SDS011;9122;48.406;9.984;2023-05-19T13:50:23;7.27;;;6.07;;
17993;SDS011;9122;48.406;9.984;2023-05-19T13:53:08;7.30;;;6.53;;
17993;SDS011;9122;48.406;9.984;2023-05-19T13:55:53;6.63;;;6.00;;
17993;SDS011;9122;48.406;9.984;2023-05-19T13:58:39;6.73;;;5.80;;
17993;SDS011;9122;48.406;9.984;2023-05-19T14:01:22;9.40;;;6.13;;
17993;SDS011;9122;48.406;9.984;2023-05-19T14:04:07;7.83;;;6.70;;
17993;SDS011;9122;48.406;9.984;2023-05-19T14:07:06;6.97;;;6.27;;
17993;SDS011;9122;48.406;9.984;2023-05-19T14:09:50;7.37;;;6.77;;
17993;SDS011;9122;48.406;9.984;2023-05-19T14:12:35;9.03;;;6.87;;
17993;SDS011;9122;48.406;9.984;2023-05-19T14:15:20;7.57;;;6.87;;
17993;SDS011;9122;48.406;9.984;2023-05-19T14:18:04;7.00;;;6.30;;
17993;SDS011;9122;48.406;9.984;2023-05-19T14:20:49;7.33;;;6.60;;
17993;SDS011;9122;48.406;9.984;2023-05-19T14:23:34;7.27;;;6.57;;
17993;SDS011;9122;48.406;9.984;2023-05-19T14:26:18;8.63;;;7.43;;
17993;SDS011;9122;48.406;9.984;2023-05-19T14:29:04;8.27;;;7.27;;
17993;SDS011;9122;48.406;9.984;2023-05-19T14:31:48;8.30;;;7.57;;
17993;SDS011;9122;48.406;9.984;2023-05-19T14:34:33;8.47;;;7.20;;
17993;SDS011;9122;48.406;9.984;2023-05-19T14:37:18;10.43;;;8.00;;
17993;SDS011;9122;48.406;9.984;2023-05-19T14:40:03;12.50;;;7.67;;
17993;SDS011;9122;48.406;9.984;2023-05-19T14:42:47;8.37;;;7.67;;
17993;SDS011;9122;48.406;9.984;2023-05-19T14:45:32;8.23;;;7.43;;
17993;SDS011;9122;48.406;9.984;2023-05-19T14:48:17;7.77;;;7.07;;
17993;SDS011;9122;48.406;9.984;2023-05-19T14:51:01;8.17;;;7.30;;
17993;SDS011;9122;48.406;9.984;2023-05-19T14:53:46;8.67;;;7.87;;
17993;SDS011;9122;48.406;9.984;2023-05-19T14:56:31;8.17;;;7.53;;
17993;SDS011;9122;48.406;9.984;2023-05-19T14:59:16;8.43;;;7.73;;
17993;SDS011;9122;48.406;9.984;2023-05-19T15:02:01;8.97;;;8.13;;
17993;SDS011;9122;48.406;9.984;2023-05-19T15:04:45;9.13;;;7.40;;
17993;SDS011;9122;48.406;9.984;2023-05-19T15:07:30;8.40;;;7.50;;
17993;SDS011;9122;48.406;9.984;2023-05-19T15:10:15;8.80;;;7.87;;
17993;SDS011;9122;48.406;9.984;2023-05-19T15:13:00;8.37;;;7.63;;
17993;SDS011;9122;48.406;9.984;2023-05-19T15:15:44;8.90;;;7.23;;
17993;SDS011;9122;48.406;9.984;2023-05-19T15:18:29;8.47;;;7.53;;
17993;SDS011;9122;48.406;9.984;2023-05-19T15:21:13;7.67;;;6.93;;
17993;SDS011;9122;48.406;9.984;2023-05-19T15:23:58;8.97;;;7.80;;
17993;SDS011;9122;48.406;9.984;2023-05-19T15:26:42;8.03;;;7.23;;
17993;SDS011;9122;48.406;9.984;2023-05-19T15:29:27;6.93;;;6.00;;
17993;SDS011;9122;48.406;9.984;2023-05-19T15:32:11;6.70;;;6.10;;
17993;SDS011;9122;48.406;9.984;2023-05-19T15:34:56;6.07;;;5.30;;
17993;SDS011;9122;48.406;9.984;2023-05-19T15:37:40;8.07;;;6.30;;
17993;SDS011;9122;48.406;9.984;2023-05-19T15:40:25;9.30;;;6.70;;
17993;SDS011;9122;48.406;9.984;2023-05-19T15:43:09;8.77;;;6.67;;
17993;SDS011;9122;48.406;9.984;2023-05-19T15:45:53;8.13;;;6.40;;
17993;SDS011;9122;48.406;9.984;2023-05-19T15:48:38;11.43;;;5.47;;
17993;SDS011;9122;48.406;9.984;2023-05-19T15:51:23;6.37;;;5.73;;
17993;SDS011;9122;48.406;9.984;2023-05-19T15:54:08;5.90;;;5.40;;
17993;SDS011;9122;48.406;9.984;2023-05-19T15:56:53;11.07;;;6.67;;
17993;SDS011;9122;48.406;9.984;2023-05-19T15:59:38;7.10;;;6.40;;
17993;SDS011;9122;48.406;9.984;2023-05-19T16:02:22;7.27;;;6.63;;
17993;SDS011;9122;48.406;9.984;2023-05-19T16:05:07;7.83;;;6.67;;
17993;SDS011;9122;48.406;9.984;2023-05-19T16:07:51;9.47;;;6.73;;
17993;SDS011;9122;48.406;9.984;2023-05-19T16:10:36;7.83;;;6.00;;
17993;SDS011;9122;48.406;9.984;2023-05-19T16:13:21;7.83;;;6.90;;
17993;SDS011;9122;48.406;9.984;2023-05-19T16:16:05;6.93;;;6.33;;
17993;SDS011;9122;48.406;9.984;2023-05-19T16:18:50;7.67;;;6.07;;
17993;SDS011;9122;48.406;9.984;2023-05-19T16:21:34;8.17;;;6.30;;
17993;SDS011;9122;48.406;9.984;2023-05-19T16:24:19;6.50;;;5.90;;
17993;SDS011;9122;48.406;9.984;2023-05-19T16:27:03;7.37;;;6.17;;
17993;SDS011;9122;48.406;9.984;2023-05-19T16:29:48;6.23;;;5.63;;
17993;SDS011;9122;48.406;9.984;2023-05-19T16:32:33;6.77;;;5.97;;
17993;SDS011;9122;48.406;9.984;2023-05-19T16:35:17;7.07;;;5.97;;
17993;SDS011;9122;48.406;9.984;2023-05-19T16:38:01;6.93;;;6.00;;
17993;SDS011;9122;48.406;9.984;2023-05-19T16:40:45;7.63;;;6.00;;
17993;SDS011;9122;48.406;9.984;2023-05-19T16:43:29;8.20;;;6.47;;
17993;SDS011;9122;48.406;9.984;2023-05-19T16:46:16;6.90;;;5.80;;
17993;SDS011;9122;48.406;9.984;2023-05-19T16:49:01;9.00;;;5.10;;
17993;SDS011;9122;48.406;9.984;2023-05-19T16:51:45;5.20;;;4.73;;
17993;SDS011;9122;48.406;9.984;2023-05-19T16:54:30;8.03;;;6.07;;
17993;SDS011;9122;48.406;9.984;2023-05-19T16:57:14;5.97;;;5.13;;
17993;SDS011;9122;48.406;9.984;2023-05-19T16:59:59;6.33;;;4.57;;
17993;SDS011;9122;48.406;9.984;2023-05-19T17:02:43;8.43;;;4.77;;
17993;SDS011;9122;48.406;9.984;2023-05-19T17:05:28;5.97;;;5.00;;
17993;SDS011;9122;48.406;9.984;2023-05-19T17:08:12;5.67;;;4.63;;
17993;SDS011;9122;48.406;9.984;2023-05-19T17:10:56;6.20;;;5.60;;
17993;SDS011;9122;48.406;9.984;2023-05-19T17:13:41;6.97;;;5.07;;
17993;SDS011;9122;48.406;9.984;2023-05-19T17:16:26;6.43;;;5.83;;
17993;SDS011;9122;48.406;9.984;2023-05-19T17:19:11;6.37;;;5.77;;